sensor_id;sensor_type;location;lat;lon;timestamp;temperature;humidity
70851;DHT22;58475;49.662;9.636;2023-06-04T00:01:05;12.66;67.84
70851;DHT22;58475;49.662;9.636;2023-06-04T00:03:31;12.48;69.02
70851;DHT22;58475;49.662;9.636;2023-06-04T00:05:56;12.21;69.78
70851;DHT22;58475;49.662;9.636;2023-06-04T00:08:23;12.21;70.64
70851;DHT22;58475;49.662;9.636;2023-06-04T00:10:48;12.06;71.71
70851;DHT22;58475;49.662;9.636;2023-06-04T00:13:14;12.04;70.63
70851;DHT22;58475;49.662;9.636;2023-06-04T00:15:39;11.77;73.03
70851;DHT22;58475;49.662;9.636;2023-06-04T00:18:05;11.77;72.81
70851;DHT22;58475;49.662;9.636;2023-06-04T00:20:30;11.36;74.21
70851;DHT22;58475;49.662;9.636;2023-06-04T00:22:56;11.44;74.21
70851;DHT22;58475;49.662;9.636;2023-06-04T00:25:21;11.70;73.81
70851;DHT22;58475;49.662;9.636;2023-06-04T00:27:46;11.29;74.43
70851;DHT22;58475;49.662;9.636;2023-06-04T00:30:12;11.23;74.31
70851;DHT22;58475;49.662;9.636;2023-06-04T00:32:38;11.37;74.53
70851;DHT22;58475;49.662;9.636;2023-06-04T00:35:05;11.24;74.65
70851;DHT22;58475;49.662;9.636;2023-06-04T00:37:30;11.24;74.50
70851;DHT22;58475;49.662;9.636;2023-06-04T00:39:55;11.13;74.71
70851;DHT22;58475;49.662;9.636;2023-06-04T00:42:21;10.99;75.27
70851;DHT22;58475;49.662;9.636;2023-06-04T00:44:46;11.05;75.80
70851;DHT22;58475;49.662;9.636;2023-06-04T00:47:13;11.32;74.78
70851;DHT22;58475;49.662;9.636;2023-06-04T00:49:40;10.96;76.40
70851;DHT22;58475;49.662;9.636;2023-06-04T00:52:08;10.83;76.04
70851;DHT22;58475;49.662;9.636;2023-06-04T00:54:34;10.89;75.90
70851;DHT22;58475;49.662;9.636;2023-06-04T00:56:59;11.03;75.48
70851;DHT22;58475;49.662;9.636;2023-06-04T00:59:25;11.03;75.48
70851;DHT22;58475;49.662;9.636;2023-06-04T01:02:00;10.72;76.40
70851;DHT22;58475;49.662;9.636;2023-06-04T01:04:54;10.88;75.88
70851;DHT22;58475;49.662;9.636;2023-06-04T01:07:18;10.88;76.46
70851;DHT22;58475;49.662;9.636;2023-06-04T01:09:44;10.68;76.64
70851;DHT22;58475;49.662;9.636;2023-06-04T01:12:11;10.17;78.12
70851;DHT22;58475;49.662;9.636;2023-06-04T01:14:36;10.48;77.21
70851;DHT22;58475;49.662;9.636;2023-06-04T01:17:04;10.44;77.71
70851;DHT22;58475;49.662;9.636;2023-06-04T01:19:49;10.43;77.22
70851;DHT22;58475;49.662;9.636;2023-06-04T01:22:35;10.38;77.41
70851;DHT22;58475;49.662;9.636;2023-06-04T01:25:03;10.41;77.10
70851;DHT22;58475;49.662;9.636;2023-06-04T01:27:29;10.24;76.88
70851;DHT22;58475;49.662;9.636;2023-06-04T01:29:55;10.25;77.50
70851;DHT22;58475;49.662;9.636;2023-06-04T01:32:23;10.03;77.36
70851;DHT22;58475;49.662;9.636;2023-06-04T01:34:48;10.13;77.62
70851;DHT22;58475;49.662;9.636;2023-06-04T01:37:14;10.50;77.00
70851;DHT22;58475;49.662;9.636;2023-06-04T01:39:42;10.45;77.22
70851;DHT22;58475;49.662;9.636;2023-06-04T01:42:08;10.30;76.82
70851;DHT22;58475;49.662;9.636;2023-06-04T01:44:34;10.17;77.43
70851;DHT22;58475;49.662;9.636;2023-06-04T01:47:00;10.00;77.70
70851;DHT22;58475;49.662;9.636;2023-06-04T01:49:25;10.29;76.50
70851;DHT22;58475;49.662;9.636;2023-06-04T01:51:51;10.24;77.12
70851;DHT22;58475;49.662;9.636;2023-06-04T01:54:16;10.21;76.65
70851;DHT22;58475;49.662;9.636;2023-06-04T01:56:42;10.37;76.67
70851;DHT22;58475;49.662;9.636;2023-06-04T01:59:07;10.18;76.78
70851;DHT22;58475;49.662;9.636;2023-06-04T02:01:33;9.93;77.79
70851;DHT22;58475;49.662;9.636;2023-06-04T02:03:59;9.87;78.51
70851;DHT22;58475;49.662;9.636;2023-06-04T02:06:25;10.04;78.13
70851;DHT22;58475;49.662;9.636;2023-06-04T02:08:56;9.85;78.16
70851;DHT22;58475;49.662;9.636;2023-06-04T02:11:21;10.02;77.45
70851;DHT22;58475;49.662;9.636;2023-06-04T02:13:47;10.00;77.71
70851;DHT22;58475;49.662;9.636;2023-06-04T02:16:13;9.85;77.91
70851;DHT22;58475;49.662;9.636;2023-06-04T02:18:38;9.81;77.95
70851;DHT22;58475;49.662;9.636;2023-06-04T02:21:03;9.89;78.53
70851;DHT22;58475;49.662;9.636;2023-06-04T02:23:29;9.97;76.84
70851;DHT22;58475;49.662;9.636;2023-06-04T02:25:54;9.72;77.61
70851;DHT22;58475;49.662;9.636;2023-06-04T02:28:20;9.58;78.64
70851;DHT22;58475;49.662;9.636;2023-06-04T02:30:46;9.55;78.71
70851;DHT22;58475;49.662;9.636;2023-06-04T02:33:12;9.34;78.96
70851;DHT22;58475;49.662;9.636;2023-06-04T02:35:38;9.52;79.09
70851;DHT22;58475;49.662;9.636;2023-06-04T02:38:03;9.28;79.66
70851;DHT22;58475;49.662;9.636;2023-06-04T02:40:28;9.45;79.08
70851;DHT22;58475;49.662;9.636;2023-06-04T02:42:55;9.55;78.88
70851;DHT22;58475;49.662;9.636;2023-06-04T02:45:21;9.38;79.29
70851;DHT22;58475;49.662;9.636;2023-06-04T02:47:47;9.14;80.07
70851;DHT22;58475;49.662;9.636;2023-06-04T02:50:13;9.30;79.38
70851;DHT22;58475;49.662;9.636;2023-06-04T02:52:42;9.38;79.64
70851;DHT22;58475;49.662;9.636;2023-06-04T02:55:09;9.34;79.42
70851;DHT22;58475;49.662;9.636;2023-06-04T02:57:34;9.34;79.69
70851;DHT22;58475;49.662;9.636;2023-06-04T03:00:01;9.39;79.18
70851;DHT22;58475;49.662;9.636;2023-06-04T03:02:27;9.27;79.24
70851;DHT22;58475;49.662;9.636;2023-06-04T03:04:52;9.05;79.49
70851;DHT22;58475;49.662;9.636;2023-06-04T03:07:20;9.13;79.47
70851;DHT22;58475;49.662;9.636;2023-06-04T03:09:48;8.84;80.63
70851;DHT22;58475;49.662;9.636;2023-06-04T03:12:14;8.52;82.41
70851;DHT22;58475;49.662;9.636;2023-06-04T03:14:39;8.66;81.99
70851;DHT22;58475;49.662;9.636;2023-06-04T03:17:05;8.62;82.24
70851;DHT22;58475;49.662;9.636;2023-06-04T03:19:40;8.63;81.90
70851;DHT22;58475;49.662;9.636;2023-06-04T03:22:06;8.49;81.97
70851;DHT22;58475;49.662;9.636;2023-06-04T03:24:37;8.55;82.20
70851;DHT22;58475;49.662;9.636;2023-06-04T03:27:03;8.66;82.42
70851;DHT22;58475;49.662;9.636;2023-06-04T03:29:30;8.49;82.32
70851;DHT22;58475;49.662;9.636;2023-06-04T03:31:56;8.63;82.35
70851;DHT22;58475;49.662;9.636;2023-06-04T03:34:22;8.38;82.78
70851;DHT22;58475;49.662;9.636;2023-06-04T03:36:51;8.56;82.75
70851;DHT22;58475;49.662;9.636;2023-06-04T03:39:16;8.60;82.46
70851;DHT22;58475;49.662;9.636;2023-06-04T03:41:42;8.57;82.46
70851;DHT22;58475;49.662;9.636;2023-06-04T03:44:08;8.66;81.74
70851;DHT22;58475;49.662;9.636;2023-06-04T03:46:34;8.81;80.89
70851;DHT22;58475;49.662;9.636;2023-06-04T03:49:02;8.87;81.34
70851;DHT22;58475;49.662;9.636;2023-06-04T03:51:28;8.60;82.99
70851;DHT22;58475;49.662;9.636;2023-06-04T03:53:54;8.59;82.93
70851;DHT22;58475;49.662;9.636;2023-06-04T03:56:20;8.62;83.09
70851;DHT22;58475;49.662;9.636;2023-06-04T03:58:46;8.64;82.62
70851;DHT22;58475;49.662;9.636;2023-06-04T04:01:12;8.67;82.88
70851;DHT22;58475;49.662;9.636;2023-06-04T04:03:37;8.62;82.81
70851;DHT22;58475;49.662;9.636;2023-06-04T04:06:03;8.56;82.85
70851;DHT22;58475;49.662;9.636;2023-06-04T04:08:29;8.52;83.56
70851;DHT22;58475;49.662;9.636;2023-06-04T04:10:57;8.85;82.86
70851;DHT22;58475;49.662;9.636;2023-06-04T04:13:23;8.84;82.81
70851;DHT22;58475;49.662;9.636;2023-06-04T04:15:48;9.11;82.61
70851;DHT22;58475;49.662;9.636;2023-06-04T04:18:21;9.14;81.71
70851;DHT22;58475;49.662;9.636;2023-06-04T04:20:47;9.25;80.91
70851;DHT22;58475;49.662;9.636;2023-06-04T04:23:13;9.28;79.84
70851;DHT22;58475;49.662;9.636;2023-06-04T04:25:42;9.46;78.50
70851;DHT22;58475;49.662;9.636;2023-06-04T04:28:09;9.72;77.16
70851;DHT22;58475;49.662;9.636;2023-06-04T04:30:36;9.83;77.93
70851;DHT22;58475;49.662;9.636;2023-06-04T04:33:03;9.90;77.81
70851;DHT22;58475;49.662;9.636;2023-06-04T04:35:35;10.03;76.93
70851;DHT22;58475;49.662;9.636;2023-06-04T04:38:02;10.06;76.44
70851;DHT22;58475;49.662;9.636;2023-06-04T04:40:36;10.12;75.56
70851;DHT22;58475;49.662;9.636;2023-06-04T04:43:03;10.17;76.56
70851;DHT22;58475;49.662;9.636;2023-06-04T04:45:29;10.33;75.24
70851;DHT22;58475;49.662;9.636;2023-06-04T04:47:57;10.51;75.53
70851;DHT22;58475;49.662;9.636;2023-06-04T04:50:23;10.76;75.29
70851;DHT22;58475;49.662;9.636;2023-06-04T04:52:49;10.78;74.25
70851;DHT22;58475;49.662;9.636;2023-06-04T04:55:14;11.44;73.44
70851;DHT22;58475;49.662;9.636;2023-06-04T04:57:43;11.54;73.25
70851;DHT22;58475;49.662;9.636;2023-06-04T05:00:09;11.15;73.88
70851;DHT22;58475;49.662;9.636;2023-06-04T05:02:36;11.33;73.88
70851;DHT22;58475;49.662;9.636;2023-06-04T05:05:03;11.39;73.25
70851;DHT22;58475;49.662;9.636;2023-06-04T05:07:29;11.64;73.84
70851;DHT22;58475;49.662;9.636;2023-06-04T05:09:55;12.28;71.91
70851;DHT22;58475;49.662;9.636;2023-06-04T05:12:20;12.33;71.09
70851;DHT22;58475;49.662;9.636;2023-06-04T05:14:46;12.21;71.03
70851;DHT22;58475;49.662;9.636;2023-06-04T05:17:13;12.32;71.99
70851;DHT22;58475;49.662;9.636;2023-06-04T05:19:42;12.49;71.13
70851;DHT22;58475;49.662;9.636;2023-06-04T05:22:07;12.36;70.53
70851;DHT22;58475;49.662;9.636;2023-06-04T05:24:34;12.83;70.46
70851;DHT22;58475;49.662;9.636;2023-06-04T05:27:26;12.77;70.08
70851;DHT22;58475;49.662;9.636;2023-06-04T05:30:03;13.34;69.81
70851;DHT22;58475;49.662;9.636;2023-06-04T05:32:30;13.34;68.68
70851;DHT22;58475;49.662;9.636;2023-06-04T05:34:58;13.63;69.37
70851;DHT22;58475;49.662;9.636;2023-06-04T05:37:27;13.72;69.49
70851;DHT22;58475;49.662;9.636;2023-06-04T05:39:56;13.76;69.90
70851;DHT22;58475;49.662;9.636;2023-06-04T05:42:22;14.05;68.77
70851;DHT22;58475;49.662;9.636;2023-06-04T05:44:49;14.20;69.17
70851;DHT22;58475;49.662;9.636;2023-06-04T05:47:16;14.30;68.61
70851;DHT22;58475;49.662;9.636;2023-06-04T05:49:42;14.41;68.91
70851;DHT22;58475;49.662;9.636;2023-06-04T05:52:08;15.08;68.63
70851;DHT22;58475;49.662;9.636;2023-06-04T05:54:34;14.58;66.95
70851;DHT22;58475;49.662;9.636;2023-06-04T05:57:00;15.09;66.95
70851;DHT22;58475;49.662;9.636;2023-06-04T05:59:25;15.08;65.96
70851;DHT22;58475;49.662;9.636;2023-06-04T06:01:50;15.74;66.86
70851;DHT22;58475;49.662;9.636;2023-06-04T06:04:16;15.91;66.44
70851;DHT22;58475;49.662;9.636;2023-06-04T06:06:42;15.90;66.39
70851;DHT22;58475;49.662;9.636;2023-06-04T06:09:09;15.81;64.65
70851;DHT22;58475;49.662;9.636;2023-06-04T06:11:36;16.28;65.45
70851;DHT22;58475;49.662;9.636;2023-06-04T06:14:01;16.32;65.02
70851;DHT22;58475;49.662;9.636;2023-06-04T06:16:27;16.29;63.74
70851;DHT22;58475;49.662;9.636;2023-06-04T06:18:52;16.97;61.61
70851;DHT22;58475;49.662;9.636;2023-06-04T06:21:18;16.83;60.23
70851;DHT22;58475;49.662;9.636;2023-06-04T06:23:43;17.13;61.18
70851;DHT22;58475;49.662;9.636;2023-06-04T06:26:09;17.39;55.92
70851;DHT22;58475;49.662;9.636;2023-06-04T06:28:39;17.99;54.58
70851;DHT22;58475;49.662;9.636;2023-06-04T06:31:06;18.36;53.39
70851;DHT22;58475;49.662;9.636;2023-06-04T06:33:31;18.61;52.98
70851;DHT22;58475;49.662;9.636;2023-06-04T06:35:57;18.24;51.45
70851;DHT22;58475;49.662;9.636;2023-06-04T06:38:26;18.43;52.92
70851;DHT22;58475;49.662;9.636;2023-06-04T06:40:52;18.87;50.15
70851;DHT22;58475;49.662;9.636;2023-06-04T06:43:17;18.50;51.29
70851;DHT22;58475;49.662;9.636;2023-06-04T06:45:42;18.72;52.58
70851;DHT22;58475;49.662;9.636;2023-06-04T06:48:08;19.19;50.46
70851;DHT22;58475;49.662;9.636;2023-06-04T06:50:33;19.25;52.21
70851;DHT22;58475;49.662;9.636;2023-06-04T06:53:01;19.64;50.71
70851;DHT22;58475;49.662;9.636;2023-06-04T06:55:26;20.15;48.11
70851;DHT22;58475;49.662;9.636;2023-06-04T06:57:52;19.95;48.72
70851;DHT22;58475;49.662;9.636;2023-06-04T07:00:17;20.18;46.64
70851;DHT22;58475;49.662;9.636;2023-06-04T07:02:43;20.42;48.26
70851;DHT22;58475;49.662;9.636;2023-06-04T07:05:09;19.94;49.06
70851;DHT22;58475;49.662;9.636;2023-06-04T07:07:34;20.32;48.53
70851;DHT22;58475;49.662;9.636;2023-06-04T07:10:00;20.48;48.23
70851;DHT22;58475;49.662;9.636;2023-06-04T07:12:26;20.32;46.40
70851;DHT22;58475;49.662;9.636;2023-06-04T07:14:51;20.86;45.96
70851;DHT22;58475;49.662;9.636;2023-06-04T07:17:16;21.28;46.16
70851;DHT22;58475;49.662;9.636;2023-06-04T07:19:42;21.27;44.61
70851;DHT22;58475;49.662;9.636;2023-06-04T07:22:07;21.07;45.15
70851;DHT22;58475;49.662;9.636;2023-06-04T07:24:32;20.68;44.86
70851;DHT22;58475;49.662;9.636;2023-06-04T07:26:58;21.10;44.05
70851;DHT22;58475;49.662;9.636;2023-06-04T07:29:23;20.93;45.03
70851;DHT22;58475;49.662;9.636;2023-06-04T07:31:48;21.02;44.01
70851;DHT22;58475;49.662;9.636;2023-06-04T07:34:14;21.42;45.77
70851;DHT22;58475;49.662;9.636;2023-06-04T07:36:40;22.20;42.06
70851;DHT22;58475;49.662;9.636;2023-06-04T07:39:05;21.71;42.60
70851;DHT22;58475;49.662;9.636;2023-06-04T07:41:30;22.36;42.55
70851;DHT22;58475;49.662;9.636;2023-06-04T07:43:56;22.47;41.36
70851;DHT22;58475;49.662;9.636;2023-06-04T07:46:21;22.53;41.49
70851;DHT22;58475;49.662;9.636;2023-06-04T07:48:46;22.09;41.36
70851;DHT22;58475;49.662;9.636;2023-06-04T07:51:13;21.52;40.94
70851;DHT22;58475;49.662;9.636;2023-06-04T07:53:42;22.63;42.94
70851;DHT22;58475;49.662;9.636;2023-06-04T07:56:10;21.74;39.98
70851;DHT22;58475;49.662;9.636;2023-06-04T07:58:38;22.50;41.24
70851;DHT22;58475;49.662;9.636;2023-06-04T08:01:03;22.23;41.41
70851;DHT22;58475;49.662;9.636;2023-06-04T08:03:29;22.37;41.67
70851;DHT22;58475;49.662;9.636;2023-06-04T08:05:54;23.16;41.18
70851;DHT22;58475;49.662;9.636;2023-06-04T08:08:20;22.53;43.04
70851;DHT22;58475;49.662;9.636;2023-06-04T08:10:45;22.14;39.39
70851;DHT22;58475;49.662;9.636;2023-06-04T08:13:11;22.72;41.24
70851;DHT22;58475;49.662;9.636;2023-06-04T08:15:36;23.62;42.16
70851;DHT22;58475;49.662;9.636;2023-06-04T08:18:01;23.41;40.12
70851;DHT22;58475;49.662;9.636;2023-06-04T08:20:27;22.80;41.12
70851;DHT22;58475;49.662;9.636;2023-06-04T08:22:52;23.92;40.36
70851;DHT22;58475;49.662;9.636;2023-06-04T08:25:18;23.55;39.89
70851;DHT22;58475;49.662;9.636;2023-06-04T08:27:43;24.25;40.62
70851;DHT22;58475;49.662;9.636;2023-06-04T08:30:09;24.39;40.40
70851;DHT22;58475;49.662;9.636;2023-06-04T08:32:34;24.04;39.35
70851;DHT22;58475;49.662;9.636;2023-06-04T08:35:00;23.43;40.92
70851;DHT22;58475;49.662;9.636;2023-06-04T08:37:26;24.31;39.84
70851;DHT22;58475;49.662;9.636;2023-06-04T08:39:51;24.45;40.48
70851;DHT22;58475;49.662;9.636;2023-06-04T08:42:30;24.48;40.74
70851;DHT22;58475;49.662;9.636;2023-06-04T08:44:57;24.52;38.16
70851;DHT22;58475;49.662;9.636;2023-06-04T08:47:24;25.26;40.62
70851;DHT22;58475;49.662;9.636;2023-06-04T08:49:50;24.88;39.43
70851;DHT22;58475;49.662;9.636;2023-06-04T08:52:16;25.53;40.60
70851;DHT22;58475;49.662;9.636;2023-06-04T08:54:42;25.47;39.11
70851;DHT22;58475;49.662;9.636;2023-06-04T08:57:09;25.46;39.08
70851;DHT22;58475;49.662;9.636;2023-06-04T08:59:36;25.17;38.60
70851;DHT22;58475;49.662;9.636;2023-06-04T09:02:02;25.48;38.72
70851;DHT22;58475;49.662;9.636;2023-06-04T09:04:29;25.41;38.80
70851;DHT22;58475;49.662;9.636;2023-06-04T09:06:54;25.46;39.55
70851;DHT22;58475;49.662;9.636;2023-06-04T09:09:21;25.98;37.54
70851;DHT22;58475;49.662;9.636;2023-06-04T09:11:52;25.82;39.01
70851;DHT22;58475;49.662;9.636;2023-06-04T09:14:18;24.89;37.67
70851;DHT22;58475;49.662;9.636;2023-06-04T09:16:45;25.03;38.76
70851;DHT22;58475;49.662;9.636;2023-06-04T09:19:11;25.24;38.18
70851;DHT22;58475;49.662;9.636;2023-06-04T09:21:53;26.05;37.00
70851;DHT22;58475;49.662;9.636;2023-06-04T09:24:20;24.82;36.20
70851;DHT22;58475;49.662;9.636;2023-06-04T09:26:45;24.97;37.35
70851;DHT22;58475;49.662;9.636;2023-06-04T09:29:11;25.17;36.22
70851;DHT22;58475;49.662;9.636;2023-06-04T09:31:36;24.75;35.80
70851;DHT22;58475;49.662;9.636;2023-06-04T09:34:03;25.89;37.11
70851;DHT22;58475;49.662;9.636;2023-06-04T09:36:35;26.18;35.50
70851;DHT22;58475;49.662;9.636;2023-06-04T09:39:02;26.61;35.91
70851;DHT22;58475;49.662;9.636;2023-06-04T09:41:28;26.82;36.22
70851;DHT22;58475;49.662;9.636;2023-06-04T09:44:03;26.69;34.60
70851;DHT22;58475;49.662;9.636;2023-06-04T09:46:29;26.76;33.89
70851;DHT22;58475;49.662;9.636;2023-06-04T09:49:03;27.21;34.00
70851;DHT22;58475;49.662;9.636;2023-06-04T09:51:29;26.74;34.76
70851;DHT22;58475;49.662;9.636;2023-06-04T09:53:55;25.48;33.41
70851;DHT22;58475;49.662;9.636;2023-06-04T09:56:22;26.25;33.56
70851;DHT22;58475;49.662;9.636;2023-06-04T09:58:48;27.00;33.53
70851;DHT22;58475;49.662;9.636;2023-06-04T10:01:14;26.56;33.32
70851;DHT22;58475;49.662;9.636;2023-06-04T10:03:42;26.04;34.56
70851;DHT22;58475;49.662;9.636;2023-06-04T10:06:14;26.43;35.71
70851;DHT22;58475;49.662;9.636;2023-06-04T10:08:41;26.09;32.46
70851;DHT22;58475;49.662;9.636;2023-06-04T10:11:08;25.40;32.96
70851;DHT22;58475;49.662;9.636;2023-06-04T10:13:55;25.75;32.95
70851;DHT22;58475;49.662;9.636;2023-06-04T10:16:23;26.43;35.05
70851;DHT22;58475;49.662;9.636;2023-06-04T10:18:52;27.65;34.86
70851;DHT22;58475;49.662;9.636;2023-06-04T10:21:20;27.07;34.95
70851;DHT22;58475;49.662;9.636;2023-06-04T10:23:45;27.04;33.91
70851;DHT22;58475;49.662;9.636;2023-06-04T10:26:15;27.38;35.08
70851;DHT22;58475;49.662;9.636;2023-06-04T10:28:41;27.08;31.67
70851;DHT22;58475;49.662;9.636;2023-06-04T10:31:09;27.28;30.95
70851;DHT22;58475;49.662;9.636;2023-06-04T10:33:35;26.70;32.03
70851;DHT22;58475;49.662;9.636;2023-06-04T10:36:15;27.21;32.38
70851;DHT22;58475;49.662;9.636;2023-06-04T10:38:45;28.03;34.42
70851;DHT22;58475;49.662;9.636;2023-06-04T10:41:14;28.61;33.51
70851;DHT22;58475;49.662;9.636;2023-06-04T10:43:45;28.61;31.55
70851;DHT22;58475;49.662;9.636;2023-06-04T10:46:14;27.44;31.44
70851;DHT22;58475;49.662;9.636;2023-06-04T10:48:46;27.61;33.58
70851;DHT22;58475;49.662;9.636;2023-06-04T10:51:12;27.79;32.89
70851;DHT22;58475;49.662;9.636;2023-06-04T10:53:38;27.99;32.09
70851;DHT22;58475;49.662;9.636;2023-06-04T10:56:03;28.37;31.01
70851;DHT22;58475;49.662;9.636;2023-06-04T10:58:34;28.50;33.10
70851;DHT22;58475;49.662;9.636;2023-06-04T11:01:00;27.56;31.57
70851;DHT22;58475;49.662;9.636;2023-06-04T11:03:35;27.35;30.86
70851;DHT22;58475;49.662;9.636;2023-06-04T11:06:14;27.21;32.70
70851;DHT22;58475;49.662;9.636;2023-06-04T11:08:41;27.94;33.98
70851;DHT22;58475;49.662;9.636;2023-06-04T11:11:13;27.48;33.31
70851;DHT22;58475;49.662;9.636;2023-06-04T11:13:40;28.12;33.61
70851;DHT22;58475;49.662;9.636;2023-06-04T11:16:16;27.70;29.43
70851;DHT22;58475;49.662;9.636;2023-06-04T11:18:42;28.48;30.41
70851;DHT22;58475;49.662;9.636;2023-06-04T11:21:07;27.89;34.17
70851;DHT22;58475;49.662;9.636;2023-06-04T11:23:33;28.06;30.95
70851;DHT22;58475;49.662;9.636;2023-06-04T11:25:59;28.16;32.43
70851;DHT22;58475;49.662;9.636;2023-06-04T11:28:25;27.73;31.67
70851;DHT22;58475;49.662;9.636;2023-06-04T11:31:00;27.83;31.39
70851;DHT22;58475;49.662;9.636;2023-06-04T11:33:29;28.55;32.24
70851;DHT22;58475;49.662;9.636;2023-06-04T11:35:55;27.85;31.08
70851;DHT22;58475;49.662;9.636;2023-06-04T11:38:20;27.78;30.79
70851;DHT22;58475;49.662;9.636;2023-06-04T11:40:57;28.03;30.52
70851;DHT22;58475;49.662;9.636;2023-06-04T11:43:23;28.53;31.54
70851;DHT22;58475;49.662;9.636;2023-06-04T11:45:49;28.68;31.62
70851;DHT22;58475;49.662;9.636;2023-06-04T11:48:15;28.78;32.15
70851;DHT22;58475;49.662;9.636;2023-06-04T11:50:40;28.85;30.98
70851;DHT22;58475;49.662;9.636;2023-06-04T11:53:07;28.62;31.03
70851;DHT22;58475;49.662;9.636;2023-06-04T11:55:32;27.88;28.64
70851;DHT22;58475;49.662;9.636;2023-06-04T11:57:58;27.86;31.50
70851;DHT22;58475;49.662;9.636;2023-06-04T12:00:23;28.03;29.65
70851;DHT22;58475;49.662;9.636;2023-06-04T12:02:53;28.67;30.32
70851;DHT22;58475;49.662;9.636;2023-06-04T12:05:20;28.57;30.04
70851;DHT22;58475;49.662;9.636;2023-06-04T12:07:49;27.51;30.86
70851;DHT22;58475;49.662;9.636;2023-06-04T12:10:18;28.99;29.98
70851;DHT22;58475;49.662;9.636;2023-06-04T12:12:44;29.27;30.76
70851;DHT22;58475;49.662;9.636;2023-06-04T12:15:10;28.90;29.04
70851;DHT22;58475;49.662;9.636;2023-06-04T12:17:36;28.10;29.66
70851;DHT22;58475;49.662;9.636;2023-06-04T12:20:05;29.03;29.60
70851;DHT22;58475;49.662;9.636;2023-06-04T12:22:31;28.69;29.88
70851;DHT22;58475;49.662;9.636;2023-06-04T12:24:57;28.79;32.17
70851;DHT22;58475;49.662;9.636;2023-06-04T12:27:24;28.83;29.70
70851;DHT22;58475;49.662;9.636;2023-06-04T12:30:02;27.78;28.95
70851;DHT22;58475;49.662;9.636;2023-06-04T12:32:28;28.44;30.23
70851;DHT22;58475;49.662;9.636;2023-06-04T12:34:54;28.27;29.90
70851;DHT22;58475;49.662;9.636;2023-06-04T12:37:21;28.53;31.80
70851;DHT22;58475;49.662;9.636;2023-06-04T12:39:46;28.75;32.43
70851;DHT22;58475;49.662;9.636;2023-06-04T12:42:13;28.41;29.01
70851;DHT22;58475;49.662;9.636;2023-06-04T12:44:39;28.68;29.43
70851;DHT22;58475;49.662;9.636;2023-06-04T12:47:06;28.87;29.34
70851;DHT22;58475;49.662;9.636;2023-06-04T12:49:31;28.50;30.59
70851;DHT22;58475;49.662;9.636;2023-06-04T12:51:57;28.72;29.80
70851;DHT22;58475;49.662;9.636;2023-06-04T12:54:22;28.64;29.29
70851;DHT22;58475;49.662;9.636;2023-06-04T12:56:48;28.64;29.43
70851;DHT22;58475;49.662;9.636;2023-06-04T12:59:14;28.65;29.52
70851;DHT22;58475;49.662;9.636;2023-06-04T13:01:39;28.28;29.88
70851;DHT22;58475;49.662;9.636;2023-06-04T13:04:05;28.36;29.57
70851;DHT22;58475;49.662;9.636;2023-06-04T13:06:31;28.99;31.22
70851;DHT22;58475;49.662;9.636;2023-06-04T13:08:57;28.81;28.44
70851;DHT22;58475;49.662;9.636;2023-06-04T13:11:22;29.06;29.93
70851;DHT22;58475;49.662;9.636;2023-06-04T13:13:48;28.53;30.59
70851;DHT22;58475;49.662;9.636;2023-06-04T13:16:13;29.20;30.69
70851;DHT22;58475;49.662;9.636;2023-06-04T13:18:39;28.81;30.89
70851;DHT22;58475;49.662;9.636;2023-06-04T13:21:07;28.54;29.09
70851;DHT22;58475;49.662;9.636;2023-06-04T13:23:33;29.01;29.32
70851;DHT22;58475;49.662;9.636;2023-06-04T13:25:58;28.71;28.42
70851;DHT22;58475;49.662;9.636;2023-06-04T13:28:23;28.83;28.58
70851;DHT22;58475;49.662;9.636;2023-06-04T13:30:49;28.55;28.95
70851;DHT22;58475;49.662;9.636;2023-06-04T13:33:14;28.91;28.81
70851;DHT22;58475;49.662;9.636;2023-06-04T13:35:40;28.75;27.32
70851;DHT22;58475;49.662;9.636;2023-06-04T13:38:07;28.27;28.10
70851;DHT22;58475;49.662;9.636;2023-06-04T13:40:36;28.57;28.76
70851;DHT22;58475;49.662;9.636;2023-06-04T13:43:05;28.51;28.38
70851;DHT22;58475;49.662;9.636;2023-06-04T13:45:31;28.87;28.36
70851;DHT22;58475;49.662;9.636;2023-06-04T13:47:57;28.33;27.97
70851;DHT22;58475;49.662;9.636;2023-06-04T13:50:28;28.81;29.53
70851;DHT22;58475;49.662;9.636;2023-06-04T13:52:53;29.36;28.00
70851;DHT22;58475;49.662;9.636;2023-06-04T13:55:19;29.36;29.22
70851;DHT22;58475;49.662;9.636;2023-06-04T13:57:44;28.83;27.78
70851;DHT22;58475;49.662;9.636;2023-06-04T14:00:10;28.92;28.75
70851;DHT22;58475;49.662;9.636;2023-06-04T14:02:39;28.24;29.03
70851;DHT22;58475;49.662;9.636;2023-06-04T14:05:05;28.58;27.96
70851;DHT22;58475;49.662;9.636;2023-06-04T14:07:31;28.51;28.35
70851;DHT22;58475;49.662;9.636;2023-06-04T14:09:57;28.25;28.43
70851;DHT22;58475;49.662;9.636;2023-06-04T14:12:23;28.28;28.28
70851;DHT22;58475;49.662;9.636;2023-06-04T14:14:51;28.91;29.69
70851;DHT22;58475;49.662;9.636;2023-06-04T14:17:16;28.65;28.63
70851;DHT22;58475;49.662;9.636;2023-06-04T14:19:45;28.40;27.63
70851;DHT22;58475;49.662;9.636;2023-06-04T14:22:11;28.62;27.93
70851;DHT22;58475;49.662;9.636;2023-06-04T14:24:37;28.47;28.21
70851;DHT22;58475;49.662;9.636;2023-06-04T14:27:03;28.47;28.30
70851;DHT22;58475;49.662;9.636;2023-06-04T14:29:28;28.76;29.10
70851;DHT22;58475;49.662;9.636;2023-06-04T14:31:56;28.67;28.26
70851;DHT22;58475;49.662;9.636;2023-06-04T14:34:22;28.27;27.52
70851;DHT22;58475;49.662;9.636;2023-06-04T14:36:47;28.72;28.19
70851;DHT22;58475;49.662;9.636;2023-06-04T14:39:13;28.65;28.19
70851;DHT22;58475;49.662;9.636;2023-06-04T14:41:38;28.82;27.82
70851;DHT22;58475;49.662;9.636;2023-06-04T14:44:03;28.33;28.39
70851;DHT22;58475;49.662;9.636;2023-06-04T14:46:29;28.41;28.29
70851;DHT22;58475;49.662;9.636;2023-06-04T14:48:55;28.71;29.01
70851;DHT22;58475;49.662;9.636;2023-06-04T14:51:21;29.32;28.50
70851;DHT22;58475;49.662;9.636;2023-06-04T14:53:47;29.30;29.82
70851;DHT22;58475;49.662;9.636;2023-06-04T14:56:14;29.15;27.24
70851;DHT22;58475;49.662;9.636;2023-06-04T14:58:39;29.05;27.55
70851;DHT22;58475;49.662;9.636;2023-06-04T15:01:04;28.31;28.19
70851;DHT22;58475;49.662;9.636;2023-06-04T15:03:31;28.27;27.56
70851;DHT22;58475;49.662;9.636;2023-06-04T15:05:57;27.89;28.89
70851;DHT22;58475;49.662;9.636;2023-06-04T15:08:22;29.36;29.36
70851;DHT22;58475;49.662;9.636;2023-06-04T15:10:48;28.87;26.62
70851;DHT22;58475;49.662;9.636;2023-06-04T15:13:13;28.81;28.85
70851;DHT22;58475;49.662;9.636;2023-06-04T15:15:39;28.47;27.22
70851;DHT22;58475;49.662;9.636;2023-06-04T15:18:05;28.21;29.44
70851;DHT22;58475;49.662;9.636;2023-06-04T15:20:32;28.67;28.58
70851;DHT22;58475;49.662;9.636;2023-06-04T15:22:57;28.74;27.26
70851;DHT22;58475;49.662;9.636;2023-06-04T15:25:22;28.25;26.70
70851;DHT22;58475;49.662;9.636;2023-06-04T15:27:51;28.99;29.22
70851;DHT22;58475;49.662;9.636;2023-06-04T15:30:17;28.12;28.92